createdAt,value
2018-09-26T00:00:01.284Z,28.78
2018-09-26T00:00:47.424Z,28.83
2018-09-26T00:01:34.696Z,28.88
2018-09-26T00:02:22.315Z,28.93
2018-09-26T00:03:06.446Z,28.97
2018-09-26T00:03:49.448Z,29.02
2018-09-26T00:04:32.367Z,29.05
2018-09-26T00:05:12.608Z,29.09
2018-09-26T00:05:51.811Z,29.14
2018-09-26T00:06:31.202Z,29.16
2018-09-26T00:07:10.689Z,29.21
2018-09-26T00:07:49.484Z,29.24
2018-09-26T00:08:33.053Z,29.28
2018-09-26T00:09:16.621Z,29.31
2018-09-26T00:09:55.845Z,29.31
2018-09-26T00:10:36.280Z,29.40
2018-09-26T00:11:22.878Z,29.42
2018-09-26T00:12:01.988Z,29.47
2018-09-26T00:12:40.621Z,29.49
2018-09-26T00:13:20.632Z,29.53
2018-09-26T00:14:00.625Z,29.55
2018-09-26T00:14:39.196Z,29.60
2018-09-26T00:15:18.207Z,29.64
2018-09-26T00:16:02.100Z,29.65
2018-09-26T00:16:46.515Z,29.69
2018-09-26T00:17:32.529Z,29.69
2018-09-26T00:18:23.482Z,29.76
2018-09-26T00:19:02.470Z,29.79
2018-09-26T00:19:41.370Z,29.83
2018-09-26T00:20:20.051Z,29.87
2018-09-26T00:20:59.929Z,29.90
2018-09-26T00:21:40.864Z,29.93
2018-09-26T00:22:20.420Z,29.96
2018-09-26T00:22:58.996Z,29.98
2018-09-26T00:23:39.348Z,30.01
2018-09-26T00:24:18.163Z,30.04
2018-09-26T00:25:00.070Z,30.08
2018-09-26T00:25:43.825Z,30.11
2018-09-26T00:26:22.484Z,30.15
2018-09-26T00:27:06.340Z,30.20
2018-09-26T00:27:45.009Z,30.23
2018-09-26T00:28:24.843Z,30.25
2018-09-26T00:29:07.031Z,30.25
2018-09-26T00:29:48.401Z,30.30
2018-09-26T00:30:27.792Z,30.33
2018-09-26T00:31:07.748Z,30.35
2018-09-26T00:31:47.658Z,30.38
2018-09-26T00:32:27.319Z,30.41
2018-09-26T00:33:07.767Z,30.45
2018-09-26T00:33:54.235Z,30.49
2018-09-26T00:34:33.928Z,30.52
2018-09-26T00:35:12.574Z,30.55
2018-09-26T00:35:51.191Z,30.58
2018-09-26T00:36:29.445Z,30.61
2018-09-26T00:37:07.694Z,30.66
2018-09-26T00:37:45.621Z,30.69
2018-09-26T00:38:23.714Z,30.72
2018-09-26T00:39:02.022Z,30.74
2018-09-26T00:39:40.006Z,30.80
2018-09-26T00:40:18.183Z,30.84
2018-09-26T00:40:56.228Z,30.87
2018-09-26T00:41:34.142Z,30.91
2018-09-26T00:42:12.071Z,30.98
2018-09-26T00:42:50.046Z,31.01
2018-09-26T00:43:28.166Z,31.06
2018-09-26T00:44:06.132Z,31.10
2018-09-26T00:44:44.159Z,31.16
2018-09-26T00:45:22.067Z,31.19
2018-09-26T00:46:00.103Z,31.24
2018-09-26T00:46:38.112Z,31.26
2018-09-26T00:47:15.994Z,31.27
2018-09-26T00:47:54.079Z,31.32
2018-09-26T00:48:32.182Z,31.34
2018-09-26T00:49:10.029Z,31.37
2018-09-26T00:49:48.885Z,31.42
2018-09-26T00:50:26.874Z,31.44
2018-09-26T00:51:05.666Z,31.46
2018-09-26T00:51:44.377Z,31.50
2018-09-26T00:52:22.157Z,31.53
2018-09-26T00:53:00.516Z,31.56
2018-09-26T00:53:38.717Z,31.57
2018-09-26T00:54:17.497Z,31.58
2018-09-26T00:54:55.473Z,31.62
2018-09-26T00:55:34.278Z,31.65
2018-09-26T00:56:12.169Z,31.67
2018-09-26T00:56:50.682Z,31.70
2018-09-26T00:57:28.657Z,31.73
2018-09-26T00:58:06.923Z,31.78
2018-09-26T00:58:44.927Z,31.81
2018-09-26T00:59:23.035Z,31.85
2018-09-26T01:00:01.005Z,31.86
2018-09-26T01:00:39.052Z,31.87
2018-09-26T01:01:17.017Z,31.89
2018-09-26T01:01:55.101Z,31.89
2018-09-26T01:02:32.866Z,31.93
2018-09-26T01:03:11.067Z,31.97
2018-09-26T01:03:49.365Z,32.01
2018-09-26T01:04:27.237Z,32.02
2018-09-26T01:05:05.260Z,32.06
2018-09-26T01:05:43.091Z,32.08
2018-09-26T01:06:22.331Z,32.10
2018-09-26T01:07:00.204Z,32.14
2018-09-26T01:07:38.141Z,32.16
2018-09-26T01:08:16.492Z,32.21
2018-09-26T01:08:54.331Z,32.24
2018-09-26T01:09:32.595Z,32.29
2018-09-26T01:10:10.447Z,32.29
2018-09-26T01:10:48.290Z,32.29
2018-09-26T01:11:26.594Z,32.30
2018-09-26T01:12:04.479Z,32.29
2018-09-26T01:12:42.490Z,32.31
2018-09-26T01:13:20.296Z,32.32
2018-09-26T01:13:58.313Z,32.36
2018-09-26T01:14:36.364Z,32.38
2018-09-26T01:15:14.241Z,32.42
2018-09-26T01:15:52.200Z,32.46
2018-09-26T01:16:32.061Z,32.52
2018-09-26T01:17:09.932Z,32.54
2018-09-26T01:17:47.704Z,32.53
2018-09-26T01:18:25.541Z,32.55
2018-09-26T01:19:03.597Z,32.57
2018-09-26T01:19:42.665Z,32.58
2018-09-26T01:20:20.614Z,32.62
2018-09-26T01:20:58.727Z,32.63
2018-09-26T01:21:36.706Z,32.62
2018-09-26T01:22:14.571Z,32.64
2018-09-26T01:22:55.962Z,32.65
2018-09-26T01:23:33.952Z,32.68
2018-09-26T01:24:11.957Z,32.70
2018-09-26T01:24:49.799Z,32.71
2018-09-26T01:25:27.577Z,32.73
2018-09-26T01:26:05.422Z,32.75
2018-09-26T01:26:43.434Z,32.79
2018-09-26T01:27:21.332Z,32.84
2018-09-26T01:27:59.225Z,32.86
2018-09-26T01:28:37.349Z,32.91
2018-09-26T01:29:15.166Z,32.94
2018-09-26T01:29:54.062Z,32.96
2018-09-26T01:30:31.874Z,33.00
2018-09-26T01:31:09.738Z,33.02
2018-09-26T01:31:48.007Z,33.06
2018-09-26T01:32:26.163Z,33.10
2018-09-26T01:33:04.238Z,33.11
2018-09-26T01:33:42.058Z,33.10
2018-09-26T01:34:19.966Z,33.13
2018-09-26T01:34:57.953Z,33.14
2018-09-26T01:35:35.754Z,33.16
2018-09-26T01:36:13.681Z,33.19
2018-09-26T01:36:51.502Z,33.22
2018-09-26T01:37:29.302Z,33.27
2018-09-26T01:38:07.418Z,33.29
2018-09-26T01:38:45.401Z,33.31
2018-09-26T01:39:23.335Z,33.36
2018-09-26T01:40:01.882Z,33.39
2018-09-26T01:40:39.714Z,33.42
2018-09-26T01:41:20.262Z,33.44
2018-09-26T01:41:58.297Z,33.47
2018-09-26T01:42:36.314Z,33.46
2018-09-26T01:43:14.214Z,33.47
2018-09-26T01:43:52.112Z,33.50
2018-09-26T01:44:30.066Z,33.51
2018-09-26T01:45:08.569Z,33.53
2018-09-26T01:45:46.387Z,33.57
2018-09-26T01:46:24.326Z,33.61
2018-09-26T01:47:02.420Z,33.65
2018-09-26T01:47:40.440Z,33.67
2018-09-26T01:48:19.280Z,33.70
2018-09-26T01:48:57.477Z,33.70
2018-09-26T01:49:36.177Z,33.75
2018-09-26T01:50:15.215Z,33.78
2018-09-26T01:50:53.050Z,33.74
2018-09-26T01:51:31.906Z,33.80
2018-09-26T01:52:09.967Z,33.78
2018-09-26T01:52:48.044Z,33.80
2018-09-26T01:53:25.888Z,33.82
2018-09-26T01:54:03.729Z,33.82
2018-09-26T01:54:41.772Z,33.86
2018-09-26T01:55:19.530Z,33.87
2018-09-26T01:55:57.321Z,33.85
2018-09-26T01:56:35.282Z,33.83
2018-09-26T01:57:13.203Z,33.83
2018-09-26T01:57:50.970Z,33.86
2018-09-26T01:58:28.869Z,33.85
2018-09-26T01:59:06.686Z,33.84
2018-09-26T01:59:44.697Z,33.88
2018-09-26T02:00:22.703Z,33.87
2018-09-26T02:01:00.749Z,33.91
2018-09-26T02:01:38.723Z,33.93
2018-09-26T02:02:16.581Z,33.94
2018-09-26T02:02:54.589Z,33.95
2018-09-26T02:03:32.380Z,33.95
2018-09-26T02:04:10.237Z,34.00
2018-09-26T02:04:48.065Z,34.01
2018-09-26T02:05:25.939Z,34.03
2018-09-26T02:06:04.922Z,33.97
2018-09-26T02:06:42.805Z,34.02
2018-09-26T02:07:20.858Z,34.03
2018-09-26T02:07:58.693Z,34.06
2018-09-26T02:08:36.717Z,34.09
2018-09-26T02:09:15.160Z,34.09
2018-09-26T02:09:53.186Z,34.13
2018-09-26T02:10:31.115Z,34.10
2018-09-26T02:11:08.943Z,34.12
2018-09-26T02:11:46.833Z,34.10
2018-09-26T02:12:24.922Z,34.14
2018-09-26T02:13:02.825Z,34.11
2018-09-26T02:13:40.704Z,34.12
2018-09-26T02:14:18.461Z,34.13
2018-09-26T02:14:56.498Z,34.18
2018-09-26T02:15:34.306Z,34.20
2018-09-26T02:16:12.475Z,34.24
2018-09-26T02:16:50.515Z,34.26
2018-09-26T02:17:28.386Z,34.28
2018-09-26T02:18:06.262Z,34.33
2018-09-26T02:18:44.452Z,34.41
2018-09-26T02:19:22.303Z,34.42
2018-09-26T02:20:00.150Z,34.46
2018-09-26T02:20:38.031Z,34.51
2018-09-26T02:21:15.959Z,34.55
2018-09-26T02:21:54.032Z,34.55
2018-09-26T02:22:31.894Z,34.59
2018-09-26T02:23:09.872Z,34.60
2018-09-26T02:23:47.897Z,34.64
2018-09-26T02:24:25.834Z,34.65
2018-09-26T02:25:03.896Z,34.67
2018-09-26T02:25:41.638Z,34.72
2018-09-26T02:26:19.538Z,34.75
2018-09-26T02:26:57.386Z,34.71
2018-09-26T02:27:35.246Z,34.74
2018-09-26T02:28:13.201Z,34.75
2018-09-26T02:28:51.035Z,34.81
2018-09-26T02:29:28.898Z,34.87
2018-09-26T02:30:07.819Z,34.91
2018-09-26T02:30:45.792Z,34.94
2018-09-26T02:31:23.745Z,34.98
2018-09-26T02:32:02.616Z,34.99
2018-09-26T02:32:40.535Z,35.02
2018-09-26T02:33:18.323Z,35.06
2018-09-26T02:33:56.432Z,35.09
2018-09-26T02:34:34.393Z,35.14
2018-09-26T02:35:12.286Z,35.16
2018-09-26T02:35:50.130Z,35.21
2018-09-26T02:36:28.368Z,35.26
2018-09-26T02:37:09.143Z,35.29
2018-09-26T02:37:47.021Z,35.31
2018-09-26T02:38:24.919Z,35.32
2018-09-26T02:39:03.255Z,35.38
2018-09-26T02:39:42.173Z,35.43
2018-09-26T02:40:20.104Z,35.44
2018-09-26T02:40:58.210Z,35.47
2018-09-26T02:41:37.459Z,35.49
2018-09-26T02:42:15.765Z,35.51
2018-09-26T02:42:54.124Z,35.53
2018-09-26T02:43:32.154Z,35.53
2018-09-26T02:44:10.605Z,35.59
2018-09-26T02:44:48.965Z,35.64
2018-09-26T02:45:26.972Z,35.68
2018-09-26T02:46:04.962Z,35.72
2018-09-26T02:46:43.030Z,35.72
2018-09-26T02:47:21.128Z,35.75
2018-09-26T02:47:59.080Z,35.81
2018-09-26T02:49:11.853Z,35.82
2018-09-26T02:49:49.896Z,35.88
2018-09-26T02:50:28.039Z,35.90
2018-09-26T02:51:07.108Z,35.91
2018-09-26T02:51:45.262Z,35.94
2018-09-26T02:52:23.357Z,35.95
2018-09-26T02:53:01.225Z,35.98
2018-09-26T02:53:39.015Z,36.04
2018-09-26T02:54:18.038Z,36.05
2018-09-26T02:54:55.960Z,36.05
2018-09-26T02:55:33.772Z,36.08
2018-09-26T02:56:11.841Z,36.08
2018-09-26T02:56:50.732Z,36.13
2018-09-26T02:57:28.596Z,36.13
2018-09-26T02:58:06.515Z,36.15
2018-09-26T02:58:44.475Z,36.15
2018-09-26T02:59:22.268Z,36.18
2018-09-26T03:00:00.137Z,36.18
2018-09-26T03:00:38.337Z,36.17
2018-09-26T03:01:16.409Z,36.19
2018-09-26T03:01:55.354Z,36.18
2018-09-26T03:02:33.350Z,36.15
2018-09-26T03:03:11.350Z,36.09
2018-09-26T03:03:49.427Z,36.08
2018-09-26T03:04:27.335Z,36.09
2018-09-26T03:05:06.205Z,36.08
2018-09-26T03:05:44.416Z,36.12
2018-09-26T03:06:22.252Z,36.12
2018-09-26T03:07:00.305Z,36.10
2018-09-26T03:07:38.213Z,36.12
2018-09-26T03:08:16.381Z,36.08
2018-09-26T03:08:55.473Z,36.06
2018-09-26T03:09:33.346Z,36.04
2018-09-26T03:10:11.127Z,36.07
2018-09-26T03:10:49.327Z,36.05
2018-09-26T03:11:27.294Z,36.07
2018-09-26T03:12:05.261Z,36.01
2018-09-26T03:12:43.101Z,36.05
2018-09-26T03:13:21.022Z,36.00
2018-09-26T03:13:58.869Z,36.03
2018-09-26T03:14:36.969Z,36.07
2018-09-26T03:15:14.928Z,36.05
2018-09-26T03:15:52.901Z,36.09
2018-09-26T03:16:30.800Z,36.04
2018-09-26T03:17:08.623Z,36.04
2018-09-26T03:17:46.520Z,36.05
2018-09-26T03:18:25.306Z,35.97
2018-09-26T03:19:03.170Z,35.95
2018-09-26T03:19:40.997Z,35.96
2018-09-26T03:20:18.902Z,35.94
2018-09-26T03:20:56.729Z,35.96
2018-09-26T03:21:34.561Z,35.97
2018-09-26T03:22:12.521Z,35.99
2018-09-26T03:22:51.535Z,35.98
2018-09-26T03:23:29.836Z,36.02
2018-09-26T03:24:07.852Z,36.05
2018-09-26T03:24:45.652Z,36.08
2018-09-26T03:25:23.676Z,36.06
2018-09-26T03:26:01.579Z,36.10
2018-09-26T03:26:39.497Z,36.13
2018-09-26T03:27:17.369Z,36.15
2018-09-26T03:27:55.359Z,36.20
2018-09-26T03:28:33.249Z,36.24
2018-09-26T03:29:11.402Z,36.26
2018-09-26T03:29:50.738Z,36.30
2018-09-26T03:30:28.590Z,36.32
2018-09-26T03:31:06.430Z,36.39
2018-09-26T03:31:44.343Z,36.40
2018-09-26T03:32:22.283Z,36.45
2018-09-26T03:33:00.134Z,36.49
2018-09-26T03:33:38.127Z,36.50
2018-09-26T03:34:16.903Z,36.54
2018-09-26T03:34:54.987Z,36.57
2018-09-26T03:35:32.857Z,36.62
2018-09-26T03:36:10.680Z,36.69
2018-09-26T03:36:48.675Z,36.74
2018-09-26T03:37:26.569Z,36.76
2018-09-26T03:38:04.600Z,36.82
2018-09-26T03:38:43.578Z,36.79
2018-09-26T03:39:21.573Z,36.83
2018-09-26T03:39:59.498Z,36.81
2018-09-26T03:40:37.331Z,36.78
2018-09-26T03:41:15.147Z,36.80
2018-09-26T03:41:53.261Z,36.83
2018-09-26T03:42:32.258Z,36.82
2018-09-26T03:43:10.511Z,36.83
2018-09-26T03:43:48.376Z,36.82
2018-09-26T03:44:26.263Z,36.82
2018-09-26T03:45:04.204Z,36.79
2018-09-26T03:45:42.205Z,36.82
2018-09-26T03:46:20.013Z,36.75
2018-09-26T03:46:57.961Z,36.76
2018-09-26T03:47:36.995Z,36.70
2018-09-26T03:48:15.002Z,36.69
2018-09-26T03:48:53.105Z,36.66
2018-09-26T03:49:31.218Z,36.65
2018-09-26T03:50:09.615Z,36.65
2018-09-26T03:50:47.672Z,36.66
2018-09-26T03:51:25.584Z,36.65
2018-09-26T03:52:04.485Z,36.62
2018-09-26T03:52:43.393Z,36.63
2018-09-26T03:53:22.420Z,36.58
2018-09-26T03:54:01.405Z,36.56
2018-09-26T03:54:39.154Z,36.53
2018-09-26T03:55:20.838Z,36.54
2018-09-26T03:55:59.496Z,36.55
2018-09-26T03:56:37.370Z,36.56
2018-09-26T03:57:15.261Z,36.58
2018-09-26T03:57:56.536Z,36.62
2018-09-26T03:58:34.331Z,36.62
2018-09-26T03:59:12.455Z,36.62
2018-09-26T03:59:50.261Z,36.57
2018-09-26T04:00:30.007Z,36.56
2018-09-26T04:01:08.105Z,36.53
2018-09-26T04:01:45.957Z,36.49
2018-09-26T04:02:23.840Z,36.45
2018-09-26T04:03:01.627Z,36.43
2018-09-26T04:03:40.316Z,36.46
2018-09-26T04:04:19.167Z,36.50
2018-09-26T04:04:58.010Z,36.49
2018-09-26T04:05:35.823Z,36.54
2018-09-26T04:06:13.689Z,36.57
2018-09-26T04:06:51.728Z,36.62
2018-09-26T04:07:29.554Z,36.68
2018-09-26T04:08:07.369Z,36.71
2018-09-26T04:08:45.385Z,36.74
2018-09-26T04:09:23.201Z,36.74
2018-09-26T04:10:01.377Z,36.76
2018-09-26T04:10:39.307Z,36.79
2018-09-26T04:11:17.441Z,36.82
2018-09-26T04:11:55.298Z,36.85
2018-09-26T04:12:33.989Z,36.84
2018-09-26T04:13:11.922Z,36.87
2018-09-26T04:13:49.862Z,36.87
2018-09-26T04:14:27.728Z,36.90
2018-09-26T04:15:05.703Z,36.91
2018-09-26T04:15:52.094Z,36.88
2018-09-26T04:16:29.984Z,36.84
2018-09-26T04:17:07.926Z,36.88
2018-09-26T04:17:46.014Z,36.89
2018-09-26T04:18:25.389Z,36.93
2018-09-26T04:19:03.514Z,36.93
2018-09-26T04:19:41.537Z,36.97
2018-09-26T04:20:19.367Z,37.00
2018-09-26T04:20:57.859Z,36.99
2018-09-26T04:21:35.723Z,37.03
2018-09-26T04:22:13.653Z,37.05
2018-09-26T04:22:52.393Z,37.06
2018-09-26T04:23:30.218Z,37.07
2018-09-26T04:24:08.239Z,37.08
2018-09-26T04:24:46.102Z,37.10
2018-09-26T04:25:24.101Z,37.09
2018-09-26T04:26:01.906Z,37.10
2018-09-26T04:26:40.143Z,37.11
2018-09-26T04:27:18.023Z,37.14
2018-09-26T04:27:56.003Z,37.17
2018-09-26T04:28:34.041Z,37.18
2018-09-26T04:29:11.935Z,37.21
2018-09-26T04:29:49.850Z,37.25
2018-09-26T04:30:27.918Z,37.26
2018-09-26T04:31:05.783Z,37.30
2018-09-26T04:31:43.604Z,37.31
2018-09-26T04:32:21.631Z,37.34
2018-09-26T04:32:59.612Z,37.35
2018-09-26T04:33:37.653Z,37.37
2018-09-26T04:34:17.602Z,37.38
2018-09-26T04:34:55.764Z,37.34
2018-09-26T04:35:33.685Z,37.33
2018-09-26T04:36:11.511Z,37.31
2018-09-26T04:36:49.454Z,37.29
2018-09-26T04:37:27.626Z,37.29
2018-09-26T04:38:05.488Z,37.30
2018-09-26T04:38:43.563Z,37.32
2018-09-26T04:39:21.491Z,37.37
2018-09-26T04:39:59.436Z,37.36
2018-09-26T04:40:38.117Z,37.35
2018-09-26T04:41:16.038Z,37.41
2018-09-26T04:41:53.992Z,37.43
2018-09-26T04:42:31.837Z,37.48
2018-09-26T04:43:09.896Z,37.51
2018-09-26T04:43:48.119Z,37.56
2018-09-26T04:44:25.977Z,37.62
2018-09-26T04:45:03.822Z,37.69
2018-09-26T04:45:41.740Z,37.76
2018-09-26T04:46:19.653Z,37.82
2018-09-26T04:46:57.474Z,37.88
2018-09-26T04:47:35.468Z,37.95
2018-09-26T04:48:13.284Z,38.01
2018-09-26T04:48:51.139Z,38.07
2018-09-26T04:49:29.004Z,38.11
2018-09-26T04:50:08.336Z,38.13
2018-09-26T04:50:46.237Z,38.14
2018-09-26T04:51:24.093Z,38.17
2018-09-26T04:52:02.285Z,38.19
2018-09-26T04:52:40.375Z,38.19
2018-09-26T04:53:18.404Z,38.15
2018-09-26T04:53:56.222Z,38.03
2018-09-26T04:54:34.208Z,37.91
2018-09-26T04:55:12.088Z,37.78
2018-09-26T04:55:50.004Z,37.61
2018-09-26T04:56:29.888Z,37.57
2018-09-26T04:57:07.679Z,37.50
2018-09-26T04:57:45.568Z,37.53
2018-09-26T04:58:23.594Z,37.52
2018-09-26T04:59:01.684Z,37.57
2018-09-26T04:59:39.554Z,37.58
2018-09-26T05:00:17.523Z,37.58
2018-09-26T05:00:55.336Z,37.60
2018-09-26T05:01:35.049Z,37.57
2018-09-26T05:02:12.836Z,37.64
2018-09-26T05:02:50.874Z,37.68
2018-09-26T05:03:28.710Z,37.74
2018-09-26T05:04:06.748Z,37.77
2018-09-26T05:04:44.591Z,37.84
2018-09-26T05:05:22.499Z,37.90
2018-09-26T05:06:01.287Z,37.94
2018-09-26T05:06:39.355Z,37.96
2018-09-26T05:07:18.408Z,38.03
2018-09-26T05:07:56.205Z,38.04
2018-09-26T05:08:34.336Z,38.07
2018-09-26T05:09:13.757Z,38.10
2018-09-26T05:09:51.843Z,38.14
2018-09-26T05:10:29.665Z,38.16
2018-09-26T05:11:07.550Z,38.18
2018-09-26T05:11:45.495Z,38.15
2018-09-26T05:12:23.356Z,38.16
2018-09-26T05:13:01.266Z,38.18
2018-09-26T05:13:39.373Z,38.13
2018-09-26T05:14:17.178Z,37.97
2018-09-26T05:14:55.167Z,37.84
2018-09-26T05:15:32.960Z,37.73
2018-09-26T05:16:10.809Z,37.73
2018-09-26T05:16:48.679Z,37.60
2018-09-26T05:17:26.571Z,37.46
2018-09-26T05:18:04.372Z,37.29
2018-09-26T05:18:43.289Z,37.18
2018-09-26T05:19:21.118Z,37.07
2018-09-26T05:19:59.242Z,37.02
2018-09-26T05:20:37.362Z,36.90
2018-09-26T05:21:15.488Z,36.87
2018-09-26T05:21:53.354Z,36.88
2018-09-26T05:22:31.290Z,36.84
2018-09-26T05:23:09.242Z,36.79
2018-09-26T05:23:47.346Z,36.67
2018-09-26T05:24:25.375Z,36.56
2018-09-26T05:25:03.498Z,36.43
2018-09-26T05:25:42.374Z,36.37
2018-09-26T05:26:20.484Z,36.29
2018-09-26T05:26:58.354Z,36.23
2018-09-26T05:27:36.250Z,36.14
2018-09-26T05:28:14.029Z,36.11
2018-09-26T05:28:51.828Z,36.01
2018-09-26T05:29:29.760Z,35.92
2018-09-26T05:30:07.739Z,35.83
2018-09-26T05:30:45.679Z,35.75
2018-09-26T05:31:23.561Z,35.62
2018-09-26T05:32:01.513Z,35.49
2018-09-26T05:32:40.762Z,35.45
2018-09-26T05:33:18.576Z,35.37
2018-09-26T05:33:56.506Z,35.32
2018-09-26T05:34:34.309Z,35.23
2018-09-26T05:35:12.395Z,35.15
2018-09-26T05:35:50.478Z,35.11
2018-09-26T05:36:28.590Z,35.07
2018-09-26T05:37:06.558Z,35.03
2018-09-26T05:37:44.384Z,34.95
2018-09-26T05:38:22.431Z,34.94
2018-09-26T05:39:00.293Z,34.94
2018-09-26T05:39:38.223Z,34.93
2018-09-26T05:40:17.268Z,34.91
2018-09-26T05:40:55.330Z,34.83
2018-09-26T05:41:39.014Z,34.74
2018-09-26T05:42:17.235Z,34.61
2018-09-26T05:42:55.193Z,34.57
2018-09-26T05:43:33.178Z,34.50
2018-09-26T05:44:12.072Z,34.43
2018-09-26T05:44:50.184Z,34.38
2018-09-26T05:45:28.076Z,34.32
2018-09-26T05:46:06.127Z,34.25
2018-09-26T05:46:44.321Z,34.22
2018-09-26T05:47:22.323Z,34.19
2018-09-26T05:48:00.167Z,34.15
2018-09-26T05:48:38.478Z,34.10
2018-09-26T05:49:16.404Z,34.08
2018-09-26T05:49:54.278Z,34.03
2018-09-26T05:50:32.147Z,33.99
2018-09-26T05:51:10.242Z,33.97
2018-09-26T05:51:48.009Z,33.88
2018-09-26T05:52:25.810Z,33.82
2018-09-26T05:53:03.790Z,33.69
2018-09-26T05:53:41.712Z,33.63
2018-09-26T05:54:19.709Z,33.55
2018-09-26T05:54:57.731Z,33.53
2018-09-26T05:55:35.858Z,33.45
2018-09-26T05:56:14.541Z,33.44
2018-09-26T05:56:52.813Z,33.37
2018-09-26T05:57:30.682Z,33.33
2018-09-26T05:58:08.557Z,33.29
2018-09-26T05:58:47.355Z,33.28
2018-09-26T05:59:25.281Z,33.22
2018-09-26T06:00:04.165Z,33.22
2018-09-26T06:00:43.272Z,33.21
2018-09-26T06:01:21.066Z,33.19
2018-09-26T06:01:58.906Z,33.17
2018-09-26T06:02:37.509Z,33.16
2018-09-26T06:03:15.664Z,33.16
2018-09-26T06:03:53.973Z,33.16
2018-09-26T06:04:31.828Z,33.13
2018-09-26T06:05:09.680Z,33.12
2018-09-26T06:05:47.608Z,33.12
2018-09-26T06:06:25.500Z,33.10
2018-09-26T06:07:03.376Z,33.08
2018-09-26T06:07:41.179Z,33.09
2018-09-26T06:08:19.130Z,33.09
2018-09-26T06:08:56.944Z,33.08
2018-09-26T06:09:34.833Z,33.08
2018-09-26T06:10:12.846Z,33.10
2018-09-26T06:10:50.778Z,33.12
2018-09-26T06:11:28.595Z,33.05
2018-09-26T06:12:12.358Z,33.02
2018-09-26T06:12:50.203Z,33.03
2018-09-26T06:13:28.138Z,33.00
2018-09-26T06:14:06.912Z,32.99
2018-09-26T06:14:44.917Z,32.99
2018-09-26T06:15:23.015Z,32.98
2018-09-26T06:16:01.814Z,32.99
2018-09-26T06:16:39.739Z,32.98
2018-09-26T06:17:17.709Z,32.98
2018-09-26T06:17:56.398Z,32.93
2018-09-26T06:18:34.303Z,32.87
2018-09-26T06:19:12.687Z,32.82
2018-09-26T06:19:50.541Z,32.74
2018-09-26T06:20:28.360Z,32.63
2018-09-26T06:21:06.355Z,32.54
2018-09-26T06:21:44.233Z,32.44
2018-09-26T06:22:22.146Z,32.35
2018-09-26T06:23:00.014Z,32.24
2018-09-26T06:23:37.866Z,32.16
2018-09-26T06:24:16.707Z,32.06
2018-09-26T06:24:54.483Z,31.98
2018-09-26T06:25:33.357Z,31.89
2018-09-26T06:26:11.329Z,31.83
2018-09-26T06:26:49.123Z,31.80
2018-09-26T06:27:27.043Z,31.76
2018-09-26T06:28:05.697Z,31.73
2018-09-26T06:28:43.574Z,31.70
2018-09-26T06:29:21.512Z,31.64
2018-09-26T06:29:59.316Z,31.62
2018-09-26T06:30:37.174Z,31.59
2018-09-26T06:31:15.001Z,31.59
2018-09-26T06:31:52.829Z,31.57
2018-09-26T06:32:30.669Z,31.56
2018-09-26T06:33:08.646Z,31.53
2018-09-26T06:33:46.498Z,31.52
2018-09-26T06:34:25.669Z,31.49
2018-09-26T06:35:03.629Z,31.44
2018-09-26T06:35:41.605Z,31.43
2018-09-26T06:36:19.440Z,31.41
2018-09-26T06:36:57.254Z,31.39
2018-09-26T06:37:35.138Z,31.40
2018-09-26T06:38:13.013Z,31.39
2018-09-26T06:38:50.882Z,31.38
2018-09-26T06:39:28.813Z,31.37
2018-09-26T06:40:08.272Z,31.35
2018-09-26T06:40:46.106Z,31.36
2018-09-26T06:41:24.097Z,31.34
2018-09-26T06:42:02.077Z,31.35
2018-09-26T06:42:39.872Z,31.35
2018-09-26T06:43:18.653Z,31.35
2018-09-26T06:43:56.654Z,31.34
2018-09-26T06:44:34.565Z,31.34
2018-09-26T06:45:12.619Z,31.32
2018-09-26T06:45:50.717Z,31.33
2018-09-26T06:46:28.654Z,31.32
2018-09-26T06:47:06.469Z,31.33
2018-09-26T06:47:44.301Z,31.35
2018-09-26T06:48:22.389Z,31.43
2018-09-26T06:49:00.514Z,31.50
2018-09-26T06:49:38.505Z,31.56
2018-09-26T06:50:16.981Z,31.62
2018-09-26T06:50:54.929Z,31.68
2018-09-26T06:51:32.763Z,31.65
2018-09-26T06:52:10.639Z,31.75
2018-09-26T06:52:48.583Z,31.84
2018-09-26T06:53:26.413Z,31.93
2018-09-26T06:54:05.146Z,32.01
2018-09-26T06:54:43.089Z,32.13
2018-09-26T06:55:20.980Z,32.24
2018-09-26T06:55:58.783Z,32.31
2018-09-26T06:56:36.588Z,32.44
2018-09-26T06:57:15.826Z,32.55
2018-09-26T06:57:53.721Z,32.67
2018-09-26T06:58:31.488Z,32.76
2018-09-26T06:59:09.733Z,32.84
2018-09-26T06:59:47.833Z,32.88
2018-09-26T07:00:25.810Z,32.92
2018-09-26T07:01:03.981Z,32.96
2018-09-26T07:01:41.965Z,33.00
2018-09-26T07:02:19.946Z,33.10
2018-09-26T07:02:58.218Z,33.19
2018-09-26T07:03:36.217Z,33.28
2018-09-26T07:04:14.074Z,33.37
2018-09-26T07:04:52.194Z,33.44
2018-09-26T07:05:30.101Z,33.53
2018-09-26T07:06:08.071Z,33.62
2018-09-26T07:06:45.873Z,33.68
2018-09-26T07:07:23.839Z,33.79
2018-09-26T07:08:01.692Z,33.87
2018-09-26T07:08:39.454Z,33.94
2018-09-26T07:09:17.613Z,34.03
2018-09-26T07:09:55.534Z,34.09
2018-09-26T07:10:33.530Z,34.14
2018-09-26T07:11:11.395Z,34.18
2018-09-26T07:11:49.474Z,34.19
2018-09-26T07:12:27.673Z,34.25
2018-09-26T07:13:05.487Z,34.29
2018-09-26T07:13:43.370Z,34.35
2018-09-26T07:14:21.321Z,34.40
2018-09-26T07:14:59.151Z,34.44
2018-09-26T07:15:43.954Z,34.50
2018-09-26T07:16:21.931Z,34.56
2018-09-26T07:16:59.816Z,34.54
2018-09-26T07:17:38.100Z,34.61
2018-09-26T07:18:16.560Z,34.66
2018-09-26T07:18:54.416Z,34.73
2018-09-26T07:19:32.608Z,34.76
2018-09-26T07:20:12.107Z,34.81
2018-09-26T07:20:50.015Z,34.85
2018-09-26T07:21:27.857Z,34.88
2018-09-26T07:22:05.673Z,34.94
2018-09-26T07:22:43.471Z,35.00
2018-09-26T07:23:21.806Z,35.07
2018-09-26T07:23:59.729Z,35.08
2018-09-26T07:24:38.079Z,35.11
2018-09-26T07:25:15.993Z,35.13
2018-09-26T07:25:54.162Z,35.14
2018-09-26T07:26:33.038Z,35.13
2018-09-26T07:27:10.856Z,35.14
2018-09-26T07:27:48.940Z,35.10
2018-09-26T07:28:27.013Z,35.14
2018-09-26T07:29:04.857Z,35.17
2018-09-26T07:29:42.842Z,35.21
2018-09-26T07:30:20.724Z,35.18
2018-09-26T07:30:59.384Z,35.20
2018-09-26T07:31:37.394Z,35.18
2018-09-26T07:32:16.832Z,35.14
2018-09-26T07:32:54.811Z,35.17
2018-09-26T07:33:32.704Z,35.20
2018-09-26T07:34:10.648Z,35.21
2018-09-26T07:34:48.497Z,35.20
2018-09-26T07:35:27.747Z,35.19
2018-09-26T07:36:05.626Z,35.15
2018-09-26T07:36:43.515Z,35.12
2018-09-26T07:37:22.275Z,35.14
2018-09-26T07:38:00.187Z,35.11
2018-09-26T07:38:39.326Z,35.07
2018-09-26T07:39:17.158Z,35.09
2018-09-26T07:39:55.121Z,35.06
2018-09-26T07:40:33.136Z,35.06
2018-09-26T07:41:11.135Z,35.07
2018-09-26T07:41:50.518Z,34.99
2018-09-26T07:42:28.400Z,34.99
2018-09-26T07:43:06.716Z,34.93
2018-09-26T07:43:44.697Z,34.91
2018-09-26T07:44:22.726Z,34.88
2018-09-26T07:45:01.599Z,34.86
2018-09-26T07:45:39.529Z,34.80
2018-09-26T07:46:17.503Z,34.75
2018-09-26T07:46:56.227Z,34.65
2018-09-26T07:47:35.091Z,34.61
2018-09-26T07:48:12.965Z,34.59
2018-09-26T07:48:50.799Z,34.52
2018-09-26T07:49:28.785Z,34.47
2018-09-26T07:50:07.478Z,34.46
2018-09-26T07:50:45.370Z,34.42
2018-09-26T07:51:23.312Z,34.38
2018-09-26T07:52:01.138Z,34.36
2018-09-26T07:52:39.218Z,34.33
2018-09-26T07:53:18.053Z,34.33
2018-09-26T07:53:55.969Z,34.28
2018-09-26T07:54:34.878Z,34.29
2018-09-26T07:55:12.855Z,34.29
2018-09-26T07:55:50.989Z,34.26
2018-09-26T07:56:28.949Z,34.26
2018-09-26T07:57:06.806Z,34.23
2018-09-26T07:57:44.771Z,34.19
2018-09-26T07:58:22.584Z,34.19
2018-09-26T07:59:00.570Z,34.14
2018-09-26T07:59:38.447Z,34.18
2018-09-26T08:00:16.954Z,34.19
2018-09-26T08:00:55.897Z,34.19
2018-09-26T08:01:33.860Z,34.20
2018-09-26T08:02:11.964Z,34.21
2018-09-26T08:02:49.809Z,34.22
2018-09-26T08:03:27.706Z,34.23
2018-09-26T08:04:05.794Z,34.25
2018-09-26T08:04:43.670Z,34.24
2018-09-26T08:05:22.354Z,34.25
2018-09-26T08:06:00.523Z,34.27
2018-09-26T08:06:38.421Z,34.28
2018-09-26T08:07:16.312Z,34.30
2018-09-26T08:07:54.197Z,34.32
2018-09-26T08:08:32.110Z,34.32
2018-09-26T08:09:11.954Z,34.33
2018-09-26T08:09:49.871Z,34.35
2018-09-26T08:10:27.695Z,34.34
2018-09-26T08:11:05.577Z,34.34
2018-09-26T08:11:43.532Z,34.33
2018-09-26T08:12:21.497Z,34.31
2018-09-26T08:12:59.421Z,34.28
2018-09-26T08:13:37.272Z,34.25
2018-09-26T08:14:15.086Z,34.17